Time;durP1;ratioP1;P1;durP2;ratioP2;P2;SDS_P1;SDS_P2;PMS_P1;PMS_P2;Temp;Humidity;BMP_temperature;BMP_pressure;BME280_temperature;BME280_humidity;BME280_pressure;Samples;Min_cycle;Max_cycle;Signal;HPM_P1;HPM_P2
2022/03/20 00:01:19;;;;;;;40.05;8.68;;;;;;;5.14;100.00;100927.09;4954726;28;20117;-80
2022/03/20 00:04:03;;;;;;;39.63;9.95;;;;;;;5.36;100.00;100939.34;4970002;28;20109;-81
2022/03/20 00:06:50;;;;;;;39.03;9.13;;;;;;;5.36;100.00;100938.53;4986185;28;20041;-80
2022/03/20 00:09:34;;;;;;;41.30;9.57;;;;;;;5.23;100.00;100936.81;4991289;28;20202;-80
2022/03/20 00:12:26;;;;;;;30.42;8.48;;;;;;;5.33;100.00;100933.56;4986373;28;20042;-80
2022/03/20 00:14:56;;;;;;;39.53;9.07;;;;;;;5.10;100.00;100907.41;4991110;28;20053;-80
2022/03/20 00:17:36;;;;;;;41.83;8.55;;;;;;;5.15;100.00;100910.53;4988793;28;20503;-80
2022/03/20 00:20:05;;;;;;;52.67;8.90;;;;;;;5.13;100.00;100905.41;4974572;28;20055;-82
2022/03/20 00:22:34;;;;;;;41.70;8.32;;;;;;;5.17;100.00;100908.63;4973327;28;20067;-82
2022/03/20 00:25:04;;;;;;;33.45;8.48;;;;;;;5.08;100.00;100898.88;4970784;28;20484;-82
2022/03/20 00:27:44;;;;;;;47.38;7.97;;;;;;;5.23;100.00;100905.56;4972419;28;20031;-80
2022/03/20 00:30:14;;;;;;;30.55;6.97;;;;;;;5.18;100.00;100899.88;4971564;28;20465;-81
2022/03/20 00:32:53;;;;;;;38.60;8.63;;;;;;;5.13;100.00;100904.59;4970731;28;20023;-80
2022/03/20 00:35:19;;;;;;;48.95;9.77;;;;;;;5.03;100.00;100886.22;4954305;28;20580;-79
2022/03/20 00:38:06;;;;;;;42.25;8.77;;;;;;;5.06;100.00;100886.00;4969582;28;20050;-81
2022/03/20 00:40:35;;;;;;;36.88;7.20;;;;;;;5.02;100.00;100878.53;4971367;28;20491;-79
2022/03/20 00:43:21;;;;;;;39.10;7.88;;;;;;;5.17;100.00;100881.75;4969589;28;20089;-81
2022/03/20 00:46:07;;;;;;;39.63;9.07;;;;;;;5.11;100.00;100883.03;4938293;29;20099;-82
2022/03/20 00:48:56;;;;;;;39.58;9.90;;;;;;;5.12;100.00;100874.31;4903919;29;20624;-81
2022/03/20 00:51:24;;;;;;;43.55;9.18;;;;;;;5.23;100.00;100876.94;4906899;29;20044;-80
2022/03/20 00:54:11;;;;;;;31.48;7.90;;;;;;;5.34;100.00;100870.91;4905617;29;20037;-79
2022/03/20 00:56:58;;;;;;;42.15;9.80;;;;;;;5.23;100.00;100855.28;4907620;29;20451;-80
2022/03/20 00:59:24;;;;;;;51.70;9.75;;;;;;;5.33;100.00;100869.25;4906037;29;20048;-78
2022/03/20 01:01:50;;;;;;;49.50;8.90;;;;;;;5.28;100.00;100869.59;4901160;29;20048;-79
2022/03/20 01:04:37;;;;;;;36.58;9.02;;;;;;;5.22;100.00;100854.44;4901324;29;20048;-79
2022/03/20 01:07:21;;;;;;;36.00;7.97;;;;;;;5.43;100.00;100856.38;4905917;29;20056;-80
2022/03/20 01:10:07;;;;;;;37.40;8.13;;;;;;;5.55;100.00;100850.25;4906952;29;20128;-80
2022/03/20 01:12:36;;;;;;;31.70;7.68;;;;;;;5.62;100.00;100844.56;4901665;29;20128;-81
2022/03/20 01:15:07;;;;;;;23.60;7.07;;;;;;;5.72;100.00;100841.13;4908903;29;20047;-82
2022/03/20 01:17:54;;;;;;;30.75;6.95;;;;;;;5.81;100.00;100834.38;4934525;29;20513;-81
2022/03/20 01:20:48;;;;;;;36.65;8.15;;;;;;;5.88;100.00;100833.91;4973496;28;20050;-81
2022/03/20 01:23:16;;;;;;;27.35;7.70;;;;;;;5.92;100.00;100824.91;4991148;28;20043;-81
2022/03/20 01:26:00;;;;;;;46.22;7.40;;;;;;;5.91;100.00;100818.84;4992092;28;20113;-80
2022/03/20 01:28:26;;;;;;;41.30;8.52;;;;;;;5.99;100.00;100826.09;4974181;28;20116;-79
2022/03/20 01:30:53;;;;;;;33.60;7.90;;;;;;;5.93;100.00;100814.34;4993941;28;20030;-80
2022/03/20 01:33:25;;;;;;;42.05;7.47;;;;;;;5.84;100.00;100802.88;4990278;28;20089;-80
2022/03/20 01:35:52;;;;;;;39.15;8.55;;;;;;;5.90;100.00;100800.75;4993551;28;20054;-80
2022/03/20 01:38:21;;;;;;;36.75;8.27;;;;;;;6.04;100.00;100803.09;4994218;28;20036;-82
2022/03/20 01:40:48;;;;;;;41.97;8.13;;;;;;;6.10;100.00;100802.66;4990502;28;20074;-81
2022/03/20 01:43:14;;;;;;;39.45;7.90;;;;;;;6.18;100.00;100798.59;4990889;28;20034;-81
2022/03/20 01:45:40;;;;;;;41.42;9.00;;;;;;;6.20;100.00;100799.28;4993839;28;20037;-80
2022/03/20 01:48:06;;;;;;;35.83;8.55;;;;;;;6.19;100.00;100788.06;4994797;28;20030;-81
2022/03/20 01:50:38;;;;;;;48.50;8.18;;;;;;;6.24;100.00;100775.47;4994318;28;20469;-81
2022/03/20 01:53:05;;;;;;;31.67;8.30;;;;;;;6.24;100.00;100769.41;4994757;28;20034;-81
2022/03/20 01:55:39;;;;;;;38.25;8.52;;;;;;;6.34;100.00;100762.50;4994325;28;20369;-80
2022/03/20 01:58:25;;;;;;;37.28;8.40;;;;;;;6.39;100.00;100760.34;4990693;28;20046;-81
2022/03/20 02:00:53;;;;;;;41.40;9.43;;;;;;;6.41;100.00;100753.22;4993713;28;20023;-80
2022/03/20 02:03:31;;;;;;;35.15;9.35;;;;;;;6.47;100.00;100751.06;4992146;28;20408;-81
2022/03/20 02:06:22;;;;;;;26.95;7.60;;;;;;;6.53;100.00;100745.38;4994645;28;20051;-80
2022/03/20 02:08:49;;;;;;;37.67;9.43;;;;;;;6.54;100.00;100749.63;4993671;28;20034;-80
2022/03/20 02:11:16;;;;;;;31.27;8.23;;;;;;;6.54;100.00;100747.03;4993807;28;20026;-81
2022/03/20 02:13:42;;;;;;;32.45;7.68;;;;;;;6.64;100.00;100737.47;4993949;28;20122;-81
2022/03/20 02:16:12;;;;;;;31.70;9.23;;;;;;;6.68;100.00;100738.88;4993563;28;20050;-80
2022/03/20 02:18:58;;;;;;;46.25;9.82;;;;;;;6.66;100.00;100734.75;4952215;29;20043;-80
2022/03/20 02:21:36;;;;;;;37.42;9.52;;;;;;;6.55;100.00;100738.25;4933580;29;20051;-80
2022/03/20 02:24:28;;;;;;;32.00;9.40;;;;;;;6.66;100.00;100717.28;4953187;29;20481;-80
2022/03/20 02:27:14;;;;;;;54.65;11.13;;;;;;;6.64;100.00;100719.19;4949724;29;20039;-81
2022/03/20 02:29:42;;;;;;;40.78;10.05;;;;;;;6.51;100.00;100711.56;4951527;29;20035;-80
2022/03/20 02:32:29;;;;;;;39.05;8.68;;;;;;;6.48;100.00;100710.97;4949681;29;20489;-79
2022/03/20 02:35:19;;;;;;;33.75;9.82;;;;;;;6.41;100.00;100711.50;4888141;29;20538;-81
2022/03/20 02:38:15;;;;;;;31.98;10.43;;;;;;;6.33;100.00;100708.69;4872209;29;20052;-80
2022/03/20 02:41:14;;;;;;;33.13;10.05;;;;;;;6.20;100.00;100711.47;4851267;29;20048;-81
2022/03/20 02:44:03;;;;;;;40.95;9.57;;;;;;;6.13;100.00;100698.09;4853164;29;20052;-81
2022/03/20 02:46:39;;;;;;;33.17;9.55;;;;;;;6.07;100.00;100698.59;4868304;29;20493;-80
2022/03/20 02:49:24;;;;;;;40.92;10.90;;;;;;;6.09;100.00;100695.88;4878942;29;20067;-81
2022/03/20 02:52:15;;;;;;;48.53;11.77;;;;;;;5.89;100.00;100687.00;4902069;29;20073;-81
2022/03/20 02:55:01;;;;;;;50.75;11.68;;;;;;;5.86;100.00;100688.09;4894082;29;20051;-80
2022/03/20 02:57:47;;;;;;;42.03;11.57;;;;;;;5.75;100.00;100673.31;4897619;29;20116;-80
2022/03/20 03:00:52;;;;;;;53.40;13.98;;;;;;;5.67;100.00;100667.88;4856601;29;20112;-80
2022/03/20 03:03:37;;;;;;;39.72;12.88;;;;;;;5.86;100.00;100668.06;4843211;29;20465;-80
2022/03/20 03:06:32;;;;;;;55.17;13.98;;;;;;;5.95;100.00;100668.28;4930514;28;20042;-80
2022/03/20 03:12:27;;;;;;;42.25;11.82;;;;;;;6.18;100.00;100674.25;4984202;28;20675;-80
2022/03/20 03:15:21;;;;;;;38.25;11.13;;;;;;;6.22;100.00;100664.41;4998874;28;20038;-81
2022/03/20 03:18:11;;;;;;;51.88;13.73;;;;;;;6.31;100.00;100658.44;5000795;28;20527;-80
2022/03/20 03:20:42;;;;;;;40.35;13.07;;;;;;;6.24;100.00;100652.91;4996338;28;20041;-80
2022/03/20 03:23:12;;;;;;;51.40;14.20;;;;;;;6.12;100.00;100641.69;4987162;28;20037;-81
2022/03/20 03:25:58;;;;;;;42.30;12.82;;;;;;;6.28;100.00;100656.91;4994327;28;20046;-80
2022/03/20 03:28:32;;;;;;;40.63;13.68;;;;;;;6.48;100.00;100661.41;4983428;28;20037;-80
2022/03/20 03:30:58;;;;;;;51.45;13.35;;;;;;;6.42;100.00;100650.53;5000605;28;20522;-79
2022/03/20 03:33:24;;;;;;;45.90;13.32;;;;;;;6.40;100.00;100638.59;5005524;28;20044;-80
2022/03/20 03:35:57;;;;;;;43.78;13.02;;;;;;;6.34;100.00;100650.38;5000366;28;20038;-80
2022/03/20 03:38:47;;;;;;;48.85;13.95;;;;;;;6.26;100.00;100644.94;4992583;28;20182;-81
2022/03/20 03:41:36;;;;;;;46.80;14.35;;;;;;;6.32;100.00;100648.81;4986088;28;20037;-80
2022/03/20 03:44:21;;;;;;;47.67;13.50;;;;;;;6.10;100.00;100640.16;4988206;28;20119;-81
2022/03/20 03:47:00;;;;;;;41.55;12.98;;;;;;;6.21;100.00;100644.50;4996537;28;20046;-80
2022/03/20 03:49:27;;;;;;;48.35;14.65;;;;;;;6.09;100.00;100646.34;4993341;28;20401;-81
2022/03/20 03:51:55;;;;;;;35.65;13.70;;;;;;;5.96;100.00;100636.06;4992114;28;20882;-81
2022/03/20 03:54:28;;;;;;;43.42;14.98;;;;;;;6.09;100.00;100648.94;4992076;28;20034;-81
2022/03/20 03:57:18;;;;;;;43.08;13.57;;;;;;;6.00;100.00;100634.84;4985250;28;20117;-81
2022/03/20 04:00:05;;;;;;;43.80;13.25;;;;;;;5.91;100.00;100636.41;4990574;28;20042;-80
2022/03/20 04:02:51;;;;;;;44.70;15.57;;;;;;;5.86;100.00;100644.59;4972682;28;20125;-80
2022/03/20 04:05:18;;;;;;;43.47;14.20;;;;;;;5.80;100.00;100639.91;4989357;28;20046;-81
2022/03/20 04:07:48;;;;;;;32.10;12.50;;;;;;;5.84;100.00;100635.28;4992503;28;20034;-81
2022/03/20 04:10:36;;;;;;;40.13;12.63;;;;;;;5.75;100.00;100626.41;4952240;28;20087;-83
2022/03/20 04:13:20;;;;;;;40.92;13.70;;;;;;;5.73;100.00;100628.31;4951266;28;20046;-80
2022/03/20 04:16:02;;;;;;;38.17;12.70;;;;;;;5.67;100.00;100629.63;4920845;29;20426;-80
2022/03/20 04:18:37;;;;;;;31.77;11.30;;;;;;;5.66;100.00;100632.34;4950741;29;20098;-81
2022/03/20 04:21:27;;;;;;;43.05;13.38;;;;;;;5.52;100.00;100634.28;4937820;28;20043;-81
2022/03/20 04:24:14;;;;;;;36.05;12.20;;;;;;;5.44;100.00;100628.84;4934818;29;20147;-81
2022/03/20 04:26:46;;;;;;;40.65;12.75;;;;;;;5.31;100.00;100638.59;4948853;29;20534;-80
2022/03/20 04:29:50;;;;;;;39.25;12.00;;;;;;;5.22;100.00;100627.94;4951518;29;20481;-83
2022/03/20 04:32:25;;;;;;;40.33;13.18;;;;;;;5.16;100.00;100620.63;4937469;29;20043;-80
2022/03/20 04:35:00;;;;;;;36.80;12.40;;;;;;;5.15;100.00;100621.56;4951598;28;20118;-81
2022/03/20 04:37:46;;;;;;;29.52;10.20;;;;;;;5.05;100.00;100613.66;4915217;28;20043;-81
2022/03/20 04:40:30;;;;;;;33.00;12.32;;;;;;;4.90;100.00;100599.22;4952205;28;20054;-81
2022/03/20 04:43:17;;;;;;;37.72;12.75;;;;;;;4.94;100.00;100621.44;4950547;28;20043;-79
2022/03/20 04:45:46;;;;;;;44.30;12.45;;;;;;;4.92;100.00;100613.78;4951450;29;20035;-79
2022/03/20 05:01:01;;;;;;;61.42;18.20;;;;;;;4.98;100.00;100612.47;4926237;29;20050;-80
2022/03/20 05:03:47;;;;;;;44.75;14.38;;;;;;;5.04;100.00;100605.94;4932625;29;20146;-81
2022/03/20 05:06:34;;;;;;;37.72;13.32;;;;;;;4.98;100.00;100618.50;4970848;28;20153;-80
2022/03/20 05:14:48;;;;;;;49.75;14.75;;;;;;;4.75;100.00;100593.44;4991397;28;20471;-80
2022/03/20 05:17:13;;;;;;;43.88;14.10;;;;;;;4.67;100.00;100591.41;4990846;28;20030;-80
2022/03/20 05:19:59;;;;;;;36.50;13.40;;;;;;;4.65;100.00;100591.53;4988636;28;20496;-80
2022/03/20 05:22:25;;;;;;;49.28;14.68;;;;;;;4.65;100.00;100596.72;4991387;28;20042;-80
2022/03/20 05:25:10;;;;;;;50.47;14.73;;;;;;;4.55;100.00;100585.38;4991293;28;20392;-80
2022/03/20 05:28:08;;;;;;;32.00;12.10;;;;;;;4.47;100.00;100582.53;4992041;28;20507;-80
2022/03/20 05:31:10;;;;;;;30.90;11.68;;;;;;;4.49;100.00;100591.03;4986826;28;20492;-80
2022/03/20 05:33:59;;;;;;;34.33;11.38;;;;;;;4.43;100.00;100597.53;4991893;28;20062;-79
2022/03/20 05:36:29;;;;;;;45.28;12.82;;;;;;;4.41;100.00;100595.06;4993046;28;20121;-79
2022/03/20 05:39:19;;;;;;;42.13;12.73;;;;;;;4.38;100.00;100594.44;4995030;28;20505;-79
2022/03/20 05:42:06;;;;;;;45.03;13.85;;;;;;;4.41;100.00;100602.84;4950259;28;20046;-80
2022/03/20 05:44:52;;;;;;;38.08;13.45;;;;;;;4.37;100.00;100579.78;4964711;28;20042;-79
2022/03/20 05:47:40;;;;;;;52.00;16.67;;;;;;;4.41;100.00;100600.25;4969551;28;20089;-79
2022/03/20 05:50:31;;;;;;;46.85;15.23;;;;;;;4.40;100.00;100592.56;4965359;28;20051;-82
2022/03/20 05:53:18;;;;;;;42.20;15.55;;;;;;;4.41;100.00;100605.44;4965737;28;20101;-79
2022/03/20 05:58:32;;;;;;;36.85;13.80;;;;;;;4.31;100.00;100604.47;4950032;28;20047;-80
2022/03/20 06:00:58;;;;;;;42.75;14.10;;;;;;;4.36;100.00;100606.72;4964000;28;20524;-79
2022/03/20 06:04:03;;;;;;;37.20;14.10;;;;;;;4.45;100.00;100620.81;4964957;28;20074;-81
2022/03/20 06:06:32;;;;;;;49.13;15.35;;;;;;;4.38;100.00;100600.47;4950382;28;20039;-80
2022/03/20 06:09:02;;;;;;;46.42;15.20;;;;;;;4.55;100.00;100611.38;4967611;28;20035;-78
2022/03/20 06:11:35;;;;;;;55.15;16.45;;;;;;;4.59;100.00;100618.00;4958680;28;20101;-79
2022/03/20 06:14:24;;;;;;;46.15;15.07;;;;;;;4.64;100.00;100615.88;4888993;29;20047;-80
2022/03/20 06:17:09;;;;;;;47.08;15.23;;;;;;;4.71;100.00;100630.06;4888345;29;20111;-78
2022/03/20 06:19:54;;;;;;;55.20;17.75;;;;;;;4.72;100.00;100621.34;4882771;29;20052;-78
2022/03/20 06:22:21;;;;;;;46.28;15.90;;;;;;;4.93;100.00;100632.81;4893586;29;20044;-78
2022/03/20 06:25:09;;;;;;;43.78;16.85;;;;;;;5.02;100.00;100634.72;4885081;29;20112;-79
2022/03/20 06:27:46;;;;;;;55.77;17.73;;;;;;;5.17;100.00;100634.44;4890511;29;20040;-80
2022/03/20 06:30:35;;;;;;;45.00;17.10;;;;;;;5.29;100.00;100631.72;4888675;29;20295;-78
2022/03/20 06:33:02;;;;;;;49.75;18.58;;;;;;;5.47;100.00;100628.59;4926789;29;20115;-78
2022/03/20 06:35:49;;;;;;;44.08;17.92;;;;;;;5.57;100.00;100629.53;4943359;29;20038;-79
2022/03/20 06:38:14;;;;;;;52.38;17.90;;;;;;;5.71;100.00;100630.22;4945863;29;20035;-77
2022/03/20 06:40:40;;;;;;;62.35;20.48;;;;;;;5.68;100.00;100625.22;4930441;29;20053;-78
2022/03/20 06:43:06;;;;;;;48.38;19.15;;;;;;;5.87;100.00;100621.97;4940321;29;20094;-80
2022/03/20 06:45:33;;;;;;;64.63;19.30;;;;;;;5.83;100.00;100621.41;4970377;28;20443;-78
2022/03/20 06:47:59;;;;;;;60.08;23.70;;;;;;;6.08;100.00;100619.41;4992320;28;20202;-80
2022/03/20 06:50:29;;;;;;;50.53;19.45;;;;;;;6.15;100.00;100606.72;4987211;28;20109;-79
2022/03/20 06:53:17;;;;;;;63.67;25.67;;;;;;;6.38;100.00;100617.84;4991483;28;20038;-79
2022/03/20 06:55:45;;;;;;;79.60;27.60;;;;;;;6.34;100.00;100624.28;4991423;28;20114;-79
2022/03/20 06:58:32;;;;;;;81.63;29.67;;;;;;;6.52;100.00;100618.50;4981450;28;20052;-81
2022/03/20 07:01:03;;;;;;;66.13;26.45;;;;;;;6.63;100.00;100618.41;4995099;28;20450;-81
2022/03/20 07:03:28;;;;;;;78.43;29.50;;;;;;;6.66;100.00;100605.09;4991117;28;20038;-81
2022/03/20 07:06:14;;;;;;;75.93;31.35;;;;;;;6.71;100.00;100605.53;4982885;28;20451;-79
2022/03/20 07:08:54;;;;;;;51.80;25.58;;;;;;;6.79;100.00;100606.66;4981089;28;20093;-80
2022/03/20 07:11:39;;;;;;;47.17;18.23;;;;;;;6.66;100.00;100605.09;4992802;28;20109;-81
2022/03/20 07:14:07;;;;;;;40.47;18.52;;;;;;;6.62;100.00;100598.47;4992440;28;20038;-81
2022/03/20 07:16:33;;;;;;;54.55;22.35;;;;;;;6.61;100.00;100594.22;4992969;28;20077;-80
2022/03/20 07:19:06;;;;;;;58.35;23.85;;;;;;;6.48;100.00;100590.97;4991259;28;20519;-81
2022/03/20 07:21:32;;;;;;;51.22;23.52;;;;;;;6.40;100.00;100579.44;4975754;28;20073;-80
2022/03/20 07:24:02;;;;;;;42.15;18.35;;;;;;;6.43;100.00;100586.97;4991697;28;20022;-80
2022/03/20 07:29:32;;;;;;;58.83;22.95;;;;;;;6.40;100.00;100578.63;4989028;28;20049;-81
2022/03/20 07:32:04;;;;;;;46.88;19.77;;;;;;;6.22;100.00;100570.53;4991730;28;20101;-82
2022/03/20 07:34:51;;;;;;;54.33;20.58;;;;;;;6.24;100.00;100568.63;4989280;28;20050;-82
2022/03/20 07:37:39;;;;;;;43.33;18.58;;;;;;;6.35;100.00;100576.38;4991399;28;20076;-81
2022/03/20 07:40:06;;;;;;;54.90;24.42;;;;;;;6.31;100.00;100554.13;4984107;28;20030;-81
2022/03/20 07:42:40;;;;;;;54.17;23.52;;;;;;;6.45;100.00;100571.22;4991978;28;20026;-82
2022/03/20 07:45:06;;;;;;;50.50;18.52;;;;;;;6.35;100.00;100565.09;4991270;28;20040;-82
2022/03/20 07:47:32;;;;;;;49.88;18.98;;;;;;;6.09;100.00;100565.50;4991936;28;20574;-83
2022/03/20 07:49:58;;;;;;;48.50;18.65;;;;;;;6.22;100.00;100565.31;4992321;28;20052;-83
2022/03/20 07:52:24;;;;;;;46.50;22.15;;;;;;;6.25;100.00;100544.19;4992966;28;20449;-83
2022/03/20 07:54:50;;;;;;;53.78;23.23;;;;;;;6.52;100.00;100555.88;4991883;28;20033;-83
2022/03/20 07:57:16;;;;;;;52.72;20.10;;;;;;;6.54;100.00;100560.00;4992102;28;20543;-81
2022/03/20 07:59:44;;;;;;;55.30;20.35;;;;;;;6.55;100.00;100566.84;4992981;28;20385;-81
2022/03/20 08:02:11;;;;;;;53.33;21.65;;;;;;;6.62;100.00;100542.88;4975584;28;20045;-83
2022/03/20 08:04:42;;;;;;;50.60;21.30;;;;;;;6.83;100.00;100550.63;4988413;28;20129;-82
2022/03/20 08:07:12;;;;;;;46.63;22.15;;;;;;;7.10;100.00;100547.41;4993396;28;20026;-81
2022/03/20 08:09:38;;;;;;;44.60;19.13;;;;;;;7.53;100.00;100542.78;4992568;28;20038;-82
2022/03/20 08:12:07;;;;;;;49.05;18.52;;;;;;;7.64;100.00;100540.97;4993026;28;20033;-82
2022/03/20 08:14:36;;;;;;;47.33;19.67;;;;;;;7.92;100.00;100547.16;4994909;28;20026;-83
2022/03/20 08:17:08;;;;;;;52.90;20.75;;;;;;;8.10;100.00;100535.97;4976482;28;20037;-83
2022/03/20 08:19:34;;;;;;;42.78;18.55;;;;;;;8.23;100.00;100544.34;4992801;28;20485;-81
2022/03/20 08:22:02;;;;;;;43.45;17.30;;;;;;;8.41;100.00;100549.66;4994274;28;20125;-84
2022/03/20 08:24:29;;;;;;;37.35;16.92;;;;;;;8.45;100.00;100534.50;4975609;28;20038;-82
2022/03/20 08:26:55;;;;;;;42.30;18.30;;;;;;;8.61;100.00;100533.91;4995894;28;20484;-82
2022/03/20 08:29:21;;;;;;;42.05;16.75;;;;;;;8.85;100.00;100535.19;4994172;28;20073;-82
2022/03/20 08:31:47;;;;;;;26.50;14.32;;;;;;;8.88;100.00;100548.00;4997364;28;20045;-82
2022/03/20 08:34:15;;;;;;;45.13;17.98;;;;;;;9.26;100.00;100521.69;4991713;28;20554;-83
2022/03/20 08:36:42;;;;;;;33.25;14.00;;;;;;;9.62;100.00;100531.34;4993383;28;20065;-82
2022/03/20 08:39:09;;;;;;;35.97;17.35;;;;;;;9.94;100.00;100522.91;4993725;28;20392;-84
2022/03/20 08:41:35;;;;;;;34.10;14.85;;;;;;;10.10;100.00;100519.56;4988469;28;20030;-83
2022/03/20 08:44:02;;;;;;;29.20;13.63;;;;;;;10.39;100.00;100512.34;5000528;28;20036;-85
2022/03/20 08:46:28;;;;;;;33.38;14.48;;;;;;;10.54;100.00;100515.22;4994813;28;20038;-84
2022/03/20 08:48:54;;;;;;;31.75;14.75;;;;;;;10.91;100.00;100521.91;4991544;28;20125;-85
2022/03/20 08:51:19;;;;;;;34.85;14.80;;;;;;;10.96;100.00;100524.88;4996872;28;20034;-85
2022/03/20 08:53:45;;;;;;;25.17;13.30;;;;;;;11.19;100.00;100518.22;4979013;28;20034;-86
2022/03/20 08:56:11;;;;;;;33.80;14.70;;;;;;;10.78;100.00;100525.00;4993769;28;20026;-85
2022/03/20 08:58:37;;;;;;;33.95;13.98;;;;;;;10.90;100.00;100517.66;4977904;28;20192;-85
2022/03/20 09:01:02;;;;;;;30.05;14.38;;;;;;;10.77;100.00;100512.03;4996613;28;20610;-86
2022/03/20 09:03:29;;;;;;;27.52;12.70;;;;;;;10.83;100.00;100514.84;4995529;28;20042;-84
2022/03/20 09:05:55;;;;;;;26.70;13.88;;;;;;;10.94;100.00;100499.78;4974876;28;20035;-85
2022/03/20 09:08:21;;;;;;;34.92;14.88;;;;;;;10.90;100.00;100503.69;4996860;28;20041;-80
2022/03/20 09:10:50;;;;;;;35.75;14.57;;;;;;;10.87;100.00;100504.84;4997491;28;20511;-82
2022/03/20 09:13:15;;;;;;;25.50;15.38;;;;;;;10.22;100.00;100503.53;4998586;28;20141;-81
2022/03/20 09:15:41;;;;;;;32.53;15.13;;;;;;;9.98;100.00;100508.50;5003019;28;20065;-81
2022/03/20 09:20:51;;;;;;;39.03;15.75;;;;;;;10.40;100.00;100503.50;5001651;28;20034;-81
2022/03/20 09:23:17;;;;;;;34.03;14.90;;;;;;;10.90;100.00;100483.50;5002086;28;20075;-81
2022/03/20 09:25:43;;;;;;;41.47;16.33;;;;;;;11.05;100.00;100493.38;4993251;28;20366;-80
2022/03/20 09:28:27;;;;;;;35.70;17.10;;;;;;;11.08;100.00;100495.69;4999414;28;20080;-82
2022/03/20 09:30:53;;;;;;;35.85;16.80;;;;;;;11.71;100.00;100490.78;4984058;28;20462;-80
2022/03/20 09:33:20;;;;;;;29.13;15.95;;;;;;;11.34;100.00;100486.84;4995855;28;20049;-81
2022/03/20 09:35:46;;;;;;;30.85;16.45;;;;;;;11.97;100.00;100479.22;4997161;28;20467;-80
2022/03/20 09:38:12;;;;;;;30.90;15.75;;;;;;;12.09;100.00;100482.38;4994971;28;20068;-81
2022/03/20 09:40:38;;;;;;;29.40;16.52;;;;;;;12.01;100.00;100472.69;4997238;28;20030;-82
2022/03/20 09:43:06;;;;;;;28.50;16.20;;;;;;;11.92;100.00;100465.75;4998286;28;20090;-80
2022/03/20 09:45:33;;;;;;;39.42;17.00;;;;;;;11.66;100.00;100464.97;4996795;28;20041;-81
2022/03/20 09:48:00;;;;;;;30.77;15.68;;;;;;;11.53;100.00;100444.44;4996696;28;20084;-82
2022/03/20 09:50:26;;;;;;;33.83;16.30;;;;;;;11.27;100.00;100466.47;4994346;28;20468;-81
2022/03/20 09:52:51;;;;;;;35.33;17.05;;;;;;;11.26;100.00;100456.09;4997397;28;20052;-80
2022/03/20 09:55:17;;;;;;;30.83;16.42;;;;;;;11.53;100.00;100462.03;4963286;28;20150;-80
2022/03/20 09:57:43;;;;;;;25.58;16.63;;;;;;;11.69;100.00;100448.88;4997665;28;20023;-83
2022/03/20 10:00:15;;;;;;;28.92;16.27;;;;;;;11.70;100.00;100431.28;4994553;28;20141;-81
2022/03/20 10:02:40;;;;;;;31.77;17.42;;;;;;;12.07;100.00;100443.03;4991869;28;20113;-81
2022/03/20 10:05:09;;;;;;;27.45;16.92;;;;;;;12.63;100.00;100420.25;4993081;28;20049;-80
2022/03/20 10:07:43;;;;;;;31.92;17.60;;;;;;;12.66;98.71;100431.25;4990081;28;20062;-84
2022/03/20 10:10:12;;;;;;;30.70;17.65;;;;;;;12.43;99.61;100425.94;4991361;28;20065;-83
2022/03/20 10:12:44;;;;;;;32.88;18.02;;;;;;;12.04;98.26;100432.03;4999330;28;20038;-88
2022/03/20 10:15:31;;;;;;;33.35;19.73;;;;;;;11.97;97.84;100421.31;4996786;28;20030;-82
2022/03/20 10:18:19;;;;;;;38.60;19.65;;;;;;;10.71;98.10;100427.63;4996555;28;20045;-83
2022/03/20 10:20:50;;;;;;;34.28;19.58;;;;;;;10.51;99.31;100413.16;4988210;28;20034;-82
2022/03/20 10:23:37;;;;;;;39.08;20.05;;;;;;;10.08;99.68;100421.84;4985937;28;20307;-81
2022/03/20 10:26:05;;;;;;;34.40;20.08;;;;;;;10.20;100.00;100417.13;5008741;28;20030;-80
2022/03/20 10:28:57;;;;;;;32.00;19.85;;;;;;;10.42;98.91;100413.16;5003915;28;20031;-80
2022/03/20 10:31:23;;;;;;;32.47;20.30;;;;;;;10.41;98.13;100406.22;4981502;28;20042;-81
2022/03/20 10:34:06;;;;;;;33.60;20.77;;;;;;;10.38;97.42;100417.00;4996651;28;20026;-80
2022/03/20 10:36:33;;;;;;;34.03;20.73;;;;;;;10.49;97.86;100412.50;4992250;28;20041;-82
2022/03/20 10:38:59;;;;;;;37.30;22.05;;;;;;;10.69;97.54;100398.09;5001254;28;20102;-84
2022/03/20 10:41:34;;;;;;;33.67;20.20;;;;;;;11.00;97.02;100402.75;5006501;28;20038;-83
2022/03/20 10:44:10;;;;;;;36.17;20.42;;;;;;;10.93;95.22;100396.47;4994514;28;20030;-82
2022/03/20 10:46:36;;;;;;;38.38;21.85;;;;;;;11.32;95.61;100397.66;5006843;28;20034;-81
2022/03/20 10:49:05;;;;;;;28.65;20.13;;;;;;;11.46;89.41;100366.38;5001503;28;20030;-82
2022/03/20 10:52:01;;;;;;;36.60;20.65;;;;;;;11.82;91.89;100387.84;4986082;28;20132;-82
2022/03/20 10:54:41;;;;;;;30.95;20.60;;;;;;;11.36;91.61;100383.16;4996294;28;20036;-82
2022/03/20 10:57:08;;;;;;;38.92;21.00;;;;;;;11.69;90.43;100382.28;4993512;28;20031;-83
2022/03/20 10:59:37;;;;;;;35.30;20.50;;;;;;;12.11;87.43;100385.63;4978640;28;20123;-83
2022/03/20 11:02:05;;;;;;;34.40;21.88;;;;;;;12.08;83.55;100378.88;4990483;28;20033;-82
2022/03/20 11:04:32;;;;;;;34.35;24.33;;;;;;;12.00;85.40;100368.38;4991303;28;20030;-82
2022/03/20 11:07:06;;;;;;;35.08;24.33;;;;;;;12.43;84.50;100374.13;4975044;28;20034;-82
2022/03/20 11:09:31;;;;;;;;;;;;;;;12.89;83.93;100375.13;4991821;28;20484;-83
2022/03/20 11:11:58;;;;;;;39.42;25.17;;;;;;;12.66;81.31;100362.78;4976750;28;19913;-84
2022/03/20 11:14:26;;;;;;;36.83;25.40;;;;;;;12.89;80.62;100356.66;4999722;28;20165;-84
2022/03/20 11:17:05;;;;;;;34.38;24.95;;;;;;;12.71;78.91;100357.78;4996415;28;20100;-83
2022/03/20 11:19:33;;;;;;;36.22;24.85;;;;;;;12.71;79.32;100347.25;5002868;28;20107;-83
2022/03/20 11:22:11;;;;;;;41.40;26.88;;;;;;;11.95;79.49;100368.06;4995970;28;20039;-84
2022/03/20 11:24:37;;;;;;;36.35;26.27;;;;;;;11.73;81.91;100362.53;4974031;28;20101;-84
2022/03/20 11:27:05;;;;;;;42.15;25.88;;;;;;;11.53;82.12;100362.91;5005594;28;20045;-83
2022/03/20 11:29:43;;;;;;;39.58;27.95;;;;;;;11.19;83.58;100358.69;4989522;28;20034;-83
2022/03/20 11:32:14;;;;;;;41.05;26.65;;;;;;;11.07;84.65;100352.16;4983434;28;20045;-84
2022/03/20 11:34:43;;;;;;;41.45;28.98;;;;;;;10.56;85.21;100360.97;4972894;28;20373;-84
2022/03/20 11:37:15;;;;;;;42.90;27.27;;;;;;;10.75;85.67;100325.72;4986616;28;20391;-83
2022/03/20 11:40:14;;;;;;;38.70;28.05;;;;;;;10.29;82.74;100344.50;4996444;28;20038;-83
2022/03/20 11:42:41;;;;;;;41.80;28.60;;;;;;;10.78;83.20;100337.69;5000373;28;20081;-83
2022/03/20 11:45:10;;;;;;;40.42;28.05;;;;;;;10.85;81.46;100338.69;4993157;28;20383;-85
2022/03/20 11:47:38;;;;;;;36.65;26.83;;;;;;;10.80;85.61;100322.59;4988068;28;20030;-81
2022/03/20 11:50:27;;;;;;;40.05;28.33;;;;;;;11.08;82.29;100317.00;4979244;28;20038;-82
2022/03/20 11:53:06;;;;;;;41.30;27.83;;;;;;;10.70;80.15;100289.44;4995567;28;20380;-82
2022/03/20 11:55:36;;;;;;;37.03;27.35;;;;;;;10.82;82.41;100305.69;4965694;28;20041;-81
2022/03/20 11:58:12;;;;;;;39.97;28.20;;;;;;;10.81;82.48;100306.69;4989847;28;20045;-85
2022/03/20 12:00:40;;;;;;;42.20;29.40;;;;;;;10.90;82.40;100310.13;4993596;28;20392;-83
2022/03/20 12:03:12;;;;;;;45.25;29.60;;;;;;;10.90;80.48;100294.38;4993602;28;20528;-83
2022/03/20 12:05:54;;;;;;;41.33;29.58;;;;;;;10.95;81.94;100289.44;4990110;28;20030;-83
2022/03/20 12:08:57;;;;;;;38.65;29.15;;;;;;;11.09;79.02;100293.16;4973291;28;20049;-83
2022/03/20 12:11:46;;;;;;;36.60;26.80;;;;;;;11.48;81.79;100286.34;4990863;28;20500;-84
2022/03/20 12:14:34;;;;;;;40.47;28.95;;;;;;;11.73;77.79;100295.97;4973783;28;20039;-84
2022/03/20 12:17:01;;;;;;;41.55;29.70;;;;;;;12.00;78.41;100295.50;4974578;28;20038;-84